Time;durP1;ratioP1;P1;durP2;ratioP2;P2;SDS_P1;SDS_P2;PMS_P1;PMS_P2;Temp;Humidity;BMP_temperature;BMP_pressure;BME280_temperature;BME280_humidity;BME280_pressure;Samples;Min_cycle;Max_cycle;Signal;HPM_P1;HPM_P2
2023/05/19 00:00:03;;;;;;;4.35;1.80;;;;;;;12.21;60.13;100035.81;413447;23;10512;-71
2023/05/19 00:00:16;;;;;;;4.55;2.05;;;;;;;12.20;59.78;100031.53;410877;23;18069;-71
2023/05/19 00:00:29;;;;;;;5.47;2.13;;;;;;;12.19;59.41;100035.03;410739;23;18234;-71
2023/05/19 00:00:43;;;;;;;5.25;1.98;;;;;;;12.20;59.34;100039.34;411130;23;4770;-71
2023/05/19 00:00:59;;;;;;;6.35;2.00;;;;;;;12.19;59.65;100040.22;411723;23;17677;-70
2023/05/19 00:01:15;;;;;;;6.80;1.95;;;;;;;12.16;61.68;100037.75;414767;23;4529;-71
2023/05/19 00:01:28;;;;;;;4.28;1.88;;;;;;;12.15;60.73;100034.28;411828;23;17687;-70
2023/05/19 00:01:42;;;;;;;4.55;1.95;;;;;;;12.15;60.02;100036.03;414867;23;4582;-70
2023/05/19 00:01:55;;;;;;;5.22;2.10;;;;;;;12.17;59.74;100039.44;411084;23;18912;-70
2023/05/19 00:02:08;;;;;;;4.45;2.10;;;;;;;12.16;60.17;100032.53;409713;23;16839;-71
2023/05/19 00:02:20;;;;;;;4.93;2.10;;;;;;;12.16;60.22;100033.38;414257;23;4611;-71
2023/05/19 00:02:33;;;;;;;4.72;1.95;;;;;;;12.17;60.46;100037.69;411733;23;4632;-71
2023/05/19 00:02:45;;;;;;;3.85;2.10;;;;;;;12.18;60.36;100038.53;413653;23;4646;-71
2023/05/19 00:02:59;;;;;;;4.40;2.15;;;;;;;12.18;60.04;100031.56;411446;23;18246;-70
2023/05/19 00:03:11;;;;;;;4.72;2.00;;;;;;;12.18;60.99;100036.78;413372;23;4992;-71
2023/05/19 00:03:24;;;;;;;3.97;2.00;;;;;;;12.19;60.79;100037.63;411733;23;17920;-71
2023/05/19 00:03:39;;;;;;;3.78;2.03;;;;;;;12.19;60.64;100037.63;415026;23;4445;-70
2023/05/19 00:03:53;;;;;;;4.10;2.00;;;;;;;12.17;60.99;100037.69;407796;23;17921;-72
2023/05/19 00:04:06;;;;;;;4.32;2.13;;;;;;;12.14;61.02;100039.56;411379;23;17973;-71
2023/05/19 00:04:18;;;;;;;5.32;2.30;;;;;;;12.14;61.18;100035.19;411997;23;18230;-70
2023/05/19 00:04:32;;;;;;;4.97;2.10;;;;;;;12.12;61.64;100030.94;415326;23;4432;-70
2023/05/19 00:04:44;;;;;;;4.80;2.17;;;;;;;12.12;61.11;100041.34;411422;23;18151;-70
2023/05/19 00:04:57;;;;;;;5.05;2.28;;;;;;;12.14;60.95;100039.56;413751;23;5048;-69
2023/05/19 00:05:11;;;;;;;4.63;2.10;;;;;;;12.13;60.92;100040.44;410827;23;18948;-70
2023/05/19 00:05:23;;;;;;;3.88;1.80;;;;;;;12.11;61.15;100029.22;411146;23;17524;-71
2023/05/19 00:05:44;;;;;;;3.25;1.77;;;;;;;12.10;60.81;100040.56;414875;23;4512;-69
2023/05/19 00:05:57;;;;;;;4.00;1.90;;;;;;;12.09;61.40;100046.66;412072;23;17410;-70
2023/05/19 00:06:09;;;;;;;5.05;1.80;;;;;;;12.07;61.74;100040.63;410873;23;17816;-70
2023/05/19 00:06:24;;;;;;;5.55;1.90;;;;;;;12.06;61.47;100037.19;412186;23;5722;-71
2023/05/19 00:06:37;;;;;;;4.28;1.83;;;;;;;12.08;61.23;100042.34;414645;23;5416;-70
2023/05/19 00:06:50;;;;;;;3.72;1.80;;;;;;;12.08;61.19;100035.38;410958;23;17880;-69
2023/05/19 00:07:04;;;;;;;5.43;1.90;;;;;;;12.08;61.95;100047.56;411466;23;15960;-71
2023/05/19 00:07:19;;;;;;;5.07;2.00;;;;;;;12.06;61.23;100046.75;414879;23;5120;-70
2023/05/19 00:07:32;;;;;;;4.15;2.13;;;;;;;12.05;61.42;100040.69;413827;23;19111;-71
2023/05/19 00:07:45;;;;;;;3.60;1.90;;;;;;;12.03;61.85;100036.44;412310;23;18128;-71
2023/05/19 00:08:00;;;;;;;3.85;1.88;;;;;;;12.02;62.29;100045.16;410858;23;18166;-71
2023/05/19 00:08:15;;;;;;;4.57;2.08;;;;;;;12.01;61.35;100044.28;412254;23;4980;-71
2023/05/19 00:08:30;;;;;;;5.72;2.30;;;;;;;11.99;61.70;100041.75;411793;23;17783;-70
2023/05/19 00:08:43;;;;;;;5.65;2.22;;;;;;;11.96;62.02;100041.84;411699;23;17921;-71
2023/05/19 00:08:58;;;;;;;4.28;2.13;;;;;;;11.93;62.75;100041.06;415239;23;5311;-70
2023/05/19 00:09:10;;;;;;;5.47;2.30;;;;;;;11.91;62.20;100032.47;410914;23;17952;-71
2023/05/19 00:09:23;;;;;;;5.95;2.42;;;;;;;11.91;61.80;100037.66;411960;23;4453;-70
2023/05/19 00:09:35;;;;;;;4.82;2.25;;;;;;;11.91;61.55;100041.16;415374;23;5228;-70
2023/05/19 00:09:48;;;;;;;3.67;2.05;;;;;;;11.91;61.39;100037.66;411459;23;9207;-71
2023/05/19 00:10:00;;;;;;;3.70;1.90;;;;;;;11.95;61.41;100039.28;414533;23;4501;-70
2023/05/19 00:10:13;;;;;;;3.55;1.90;;;;;;;11.96;61.55;100036.63;410678;23;16585;-71
2023/05/19 00:10:30;;;;;;;4.38;1.85;;;;;;;11.98;61.55;100040.03;415209;23;5029;-70
2023/05/19 00:10:43;;;;;;;3.75;2.00;;;;;;;11.99;61.51;100036.53;411383;23;17932;-71
2023/05/19 00:10:55;;;;;;;3.63;2.10;;;;;;;11.98;61.48;100034.81;415071;23;4498;-71
2023/05/19 00:11:07;;;;;;;4.28;1.92;;;;;;;11.97;61.62;100038.34;410685;23;16408;-71
2023/05/19 00:11:21;;;;;;;5.20;2.00;;;;;;;11.95;61.59;100040.16;414880;23;4623;-71
2023/05/19 00:11:35;;;;;;;5.35;2.10;;;;;;;11.96;62.10;100036.63;411779;23;18062;-71
2023/05/19 00:11:50;;;;;;;4.75;2.20;;;;;;;11.94;61.87;100041.03;411384;23;18010;-71
2023/05/19 00:12:02;;;;;;;4.72;2.00;;;;;;;11.94;61.43;100035.81;411979;23;17251;-71
2023/05/19 00:12:15;;;;;;;4.70;1.98;;;;;;;11.92;61.49;100035.03;414750;23;4433;-71
2023/05/19 00:12:27;;;;;;;4.03;1.80;;;;;;;11.92;61.15;100027.22;411536;23;5125;-72
2023/05/19 00:12:40;;;;;;;4.72;1.90;;;;;;;11.91;61.43;100033.34;414808;23;4466;-71
2023/05/19 00:12:52;;;;;;;6.22;2.03;;;;;;;11.90;61.75;100036.81;411705;23;10563;-71
2023/05/19 00:13:05;;;;;;;5.65;2.10;;;;;;;11.91;61.31;100035.94;411283;23;5466;-70
2023/05/19 00:13:18;;;;;;;4.75;2.03;;;;;;;11.92;61.17;100039.38;412340;23;10211;-70
2023/05/19 00:13:31;;;;;;;4.20;2.00;;;;;;;11.94;61.12;100033.22;414528;23;4663;-70
2023/05/19 00:13:47;;;;;;;4.25;1.90;;;;;;;11.94;61.75;100033.22;410811;23;19128;-72
2023/05/19 00:14:00;;;;;;;5.30;1.90;;;;;;;11.94;61.59;100032.38;409179;23;17085;-71
2023/05/19 00:14:12;;;;;;;5.10;1.80;;;;;;;11.94;61.88;100035.81;410847;23;4892;-71
2023/05/19 00:14:24;;;;;;;4.13;1.83;;;;;;;11.95;61.54;100034.94;413468;23;4664;-71
2023/05/19 00:14:36;;;;;;;4.18;2.10;;;;;;;11.93;61.94;100041.97;414692;23;4757;-71
2023/05/19 00:14:49;;;;;;;3.30;2.00;;;;;;;11.95;61.88;100034.94;404389;23;19195;-71
2023/05/19 00:15:01;;;;;;;3.63;1.83;;;;;;;11.96;61.74;100035.78;415162;23;5451;-70
2023/05/19 00:15:14;;;;;;;4.03;2.08;;;;;;;11.97;62.15;100043.56;411672;23;19152;-71
2023/05/19 00:15:26;;;;;;;4.43;2.25;;;;;;;11.96;61.93;100028.81;414748;23;5128;-69
2023/05/19 00:15:38;;;;;;;4.82;2.17;;;;;;;11.99;61.40;100035.66;411427;23;9642;-70
2023/05/19 00:15:51;;;;;;;5.13;2.05;;;;;;;12.00;61.36;100032.19;415284;23;4512;-70
2023/05/19 00:16:04;;;;;;;4.32;1.73;;;;;;;11.98;61.26;100028.78;410979;23;19366;-71
2023/05/19 00:16:17;;;;;;;2.63;1.70;;;;;;;11.97;61.45;100027.94;414847;23;4522;-70
2023/05/19 00:16:30;;;;;;;3.30;1.95;;;;;;;11.97;61.29;100032.25;411239;23;18198;-69
2023/05/19 00:16:42;;;;;;;4.22;2.20;;;;;;;11.96;61.07;100036.63;411867;23;16495;-71
2023/05/19 00:16:56;;;;;;;5.85;2.28;;;;;;;11.97;61.26;100027.06;415193;23;4434;-70
2023/05/19 00:17:09;;;;;;;5.05;2.03;;;;;;;11.97;61.28;100033.13;411522;23;17978;-70
2023/05/19 00:17:21;;;;;;;4.10;2.00;;;;;;;11.97;61.19;100033.13;414215;23;4464;-69
2023/05/19 00:17:35;;;;;;;3.53;2.10;;;;;;;11.98;60.90;100029.63;410994;23;17888;-70
2023/05/19 00:17:47;;;;;;;4.13;2.10;;;;;;;12.01;60.96;100033.03;412049;23;17561;-70
2023/05/19 00:17:59;;;;;;;5.20;2.03;;;;;;;11.99;61.05;100028.72;415313;23;4632;-70
2023/05/19 00:18:12;;;;;;;5.85;2.20;;;;;;;12.00;61.29;100029.56;413753;23;4726;-70
2023/05/19 00:18:25;;;;;;;4.78;2.10;;;;;;;11.99;61.01;100036.53;412138;23;17681;-69
2023/05/19 00:18:37;;;;;;;3.97;1.92;;;;;;;11.98;61.75;100024.41;411462;23;9826;-70
2023/05/19 00:18:50;;;;;;;4.53;1.90;;;;;;;11.98;61.60;100024.41;414948;23;4478;-70
2023/05/19 00:19:04;;;;;;;4.85;2.30;;;;;;;11.96;61.79;100033.19;411544;23;17138;-70
2023/05/19 00:19:17;;;;;;;5.00;2.40;;;;;;;11.97;61.99;100032.25;414835;23;4443;-70
2023/05/19 00:19:31;;;;;;;4.93;2.03;;;;;;;11.95;61.58;100027.13;410918;23;19080;-70
2023/05/19 00:19:43;;;;;;;4.27;1.90;;;;;;;11.97;61.43;100033.13;411832;23;18849;-70
2023/05/19 00:19:56;;;;;;;3.75;1.90;;;;;;;11.98;61.40;100023.56;415012;23;4513;-70
2023/05/19 00:20:08;;;;;;;3.90;1.92;;;;;;;11.98;61.45;100028.78;411153;23;18677;-70
2023/05/19 00:20:21;;;;;;;4.22;2.08;;;;;;;11.97;61.05;100022.72;414593;23;4797;-71
2023/05/19 00:20:33;;;;;;;4.97;2.10;;;;;;;11.98;61.42;100029.63;411681;23;18266;-70
2023/05/19 00:20:45;;;;;;;4.38;1.98;;;;;;;11.99;61.37;100026.13;414992;23;4462;-70
2023/05/19 00:20:57;;;;;;;3.05;1.85;;;;;;;11.99;61.13;100031.34;415697;23;4589;-70
2023/05/19 00:21:09;;;;;;;4.50;2.00;;;;;;;11.97;61.47;100033.13;411274;23;17909;-70
2023/05/19 00:21:22;;;;;;;5.32;2.13;;;;;;;11.96;61.21;100031.41;414753;23;4450;-70
2023/05/19 00:21:34;;;;;;;5.05;2.08;;;;;;;11.93;61.71;100026.31;411327;23;18258;-70
2023/05/19 00:21:46;;;;;;;3.42;2.05;;;;;;;11.89;62.17;100029.06;415325;23;5123;-71
2023/05/19 00:21:58;;;;;;;3.00;1.95;;;;;;;11.90;62.09;100031.63;410698;23;18188;-71
2023/05/19 00:22:10;;;;;;;4.30;2.10;;;;;;;11.89;62.09;100029.06;414083;23;4505;-71
2023/05/19 00:22:23;;;;;;;4.57;2.08;;;;;;;11.90;62.06;100031.63;411085;23;10532;-71
2023/05/19 00:22:35;;;;;;;4.15;2.00;;;;;;;11.91;61.66;100025.53;415374;23;5175;-71
2023/05/19 00:22:48;;;;;;;3.95;1.90;;;;;;;11.92;62.00;100034.19;412492;23;9384;-71
2023/05/19 00:23:00;;;;;;;5.78;2.00;;;;;;;11.92;61.44;100029.81;414489;23;17959;-70
2023/05/19 00:23:11;;;;;;;7.00;2.10;;;;;;;11.93;61.49;100026.31;415087;23;4474;-71
2023/05/19 00:23:24;;;;;;;6.85;2.03;;;;;;;11.92;60.85;100028.97;411342;23;17952;-71
2023/05/19 00:23:36;;;;;;;5.95;2.00;;;;;;;11.91;60.52;100030.72;415397;23;4946;-71
2023/05/19 00:23:48;;;;;;;5.15;2.10;;;;;;;11.89;60.76;100029.06;411639;23;10139;-71
2023/05/19 00:24:00;;;;;;;5.28;2.10;;;;;;;11.89;60.46;100032.53;414041;23;4609;-73
2023/05/19 00:24:12;;;;;;;5.70;2.20;;;;;;;11.88;59.84;100028.19;414584;23;5291;-72
2023/05/19 00:24:24;;;;;;;3.38;1.98;;;;;;;11.87;60.36;100031.69;411874;23;17732;-71
2023/05/19 00:24:36;;;;;;;3.25;2.10;;;;;;;11.88;60.07;100030.78;414770;23;4494;-71
2023/05/19 00:24:48;;;;;;;3.80;2.10;;;;;;;11.90;60.50;100031.63;411509;23;9527;-71
2023/05/19 00:25:00;;;;;;;3.53;1.90;;;;;;;11.91;60.68;100032.47;415312;23;4756;-71
2023/05/19 00:25:12;;;;;;;3.75;1.80;;;;;;;11.89;60.61;100032.53;414880;23;5537;-70
2023/05/19 00:25:24;;;;;;;6.03;1.95;;;;;;;11.91;60.55;100027.25;411506;23;9956;-70
2023/05/19 00:25:39;;;;;;;7.30;2.00;;;;;;;11.91;60.23;100025.53;411246;23;18355;-70
2023/05/19 00:25:52;;;;;;;6.97;1.92;;;;;;;11.89;61.06;100029.94;415426;23;5018;-70
2023/05/19 00:26:04;;;;;;;7.07;1.98;;;;;;;11.85;61.24;100030.91;411550;23;18167;-70
2023/05/19 00:26:17;;;;;;;5.10;1.92;;;;;;;11.87;61.29;100026.50;415078;23;5442;-71
2023/05/19 00:26:29;;;;;;;4.95;1.92;;;;;;;11.88;61.32;100027.34;410377;23;18264;-71
2023/05/19 00:26:41;;;;;;;5.07;1.90;;;;;;;11.84;61.89;100026.56;414838;23;5284;-71
2023/05/19 00:26:53;;;;;;;5.57;2.10;;;;;;;11.83;62.30;100034.44;411631;23;16543;-71
2023/05/19 00:27:05;;;;;;;5.20;2.28;;;;;;;11.83;62.34;100029.22;414859;23;4791;-70
2023/05/19 00:27:18;;;;;;;6.43;2.50;;;;;;;11.84;61.87;100029.19;411427;23;6382;-70
2023/05/19 00:27:30;;;;;;;6.10;2.60;;;;;;;11.85;61.79;100028.28;414481;23;5176;-71
2023/05/19 00:27:42;;;;;;;5.45;2.60;;;;;;;11.85;61.55;100033.50;414542;23;4540;-70
2023/05/19 00:27:54;;;;;;;4.35;2.25;;;;;;;11.84;61.22;100029.19;411333;23;18280;-70
2023/05/19 00:28:06;;;;;;;3.00;2.13;;;;;;;11.86;60.89;100024.78;414936;23;4651;-70
2023/05/19 00:28:18;;;;;;;3.47;2.00;;;;;;;11.85;60.41;100030.91;411942;23;9454;-70
2023/05/19 00:28:30;;;;;;;5.18;2.10;;;;;;;11.86;60.88;100027.38;411547;23;16896;-70
2023/05/19 00:28:42;;;;;;;5.07;2.03;;;;;;;11.86;60.59;100035.19;413082;23;5418;-70
2023/05/19 00:28:54;;;;;;;5.25;1.92;;;;;;;11.82;60.11;100027.53;410252;23;18348;-70
2023/05/19 00:29:06;;;;;;;5.13;1.90;;;;;;;11.83;60.65;100029.22;413050;23;4466;-69
2023/05/19 00:29:18;;;;;;;4.30;1.85;;;;;;;11.82;60.94;100025.78;410247;23;17543;-69
2023/05/19 00:29:30;;;;;;;3.05;1.83;;;;;;;11.84;60.93;100031.78;413434;23;4483;-69
2023/05/19 00:29:42;;;;;;;3.83;2.08;;;;;;;11.85;61.07;100033.50;413193;23;5313;-70
2023/05/19 00:29:54;;;;;;;3.80;2.20;;;;;;;11.85;60.97;100033.50;410003;23;18091;-70
2023/05/19 00:30:07;;;;;;;4.20;2.15;;;;;;;11.86;61.58;100027.38;413066;23;4484;-69
2023/05/19 00:30:21;;;;;;;5.30;2.08;;;;;;;11.85;61.53;100025.69;408733;23;18177;-71
2023/05/19 00:30:33;;;;;;;6.03;2.30;;;;;;;11.84;61.40;100026.56;410260;23;17855;-71
2023/05/19 00:30:45;;;;;;;5.13;2.30;;;;;;;11.84;60.88;100029.19;415180;23;4758;-70
2023/05/19 00:30:57;;;;;;;5.70;2.30;;;;;;;11.83;60.69;100030.09;415447;23;4431;-70
2023/05/19 00:31:09;;;;;;;5.53;2.00;;;;;;;11.82;60.69;100022.31;411958;23;18268;-70
2023/05/19 00:31:21;;;;;;;6.38;2.05;;;;;;;11.84;60.86;100029.19;414821;23;5708;-70
2023/05/19 00:31:33;;;;;;;7.90;2.10;;;;;;;11.84;61.06;100029.19;410288;23;19290;-71
2023/05/19 00:31:45;;;;;;;6.85;2.10;;;;;;;11.84;61.44;100029.19;415161;23;5086;-69
2023/05/19 00:31:57;;;;;;;5.57;2.00;;;;;;;11.84;60.83;100023.97;414759;23;4644;-70
2023/05/19 00:32:10;;;;;;;4.97;2.03;;;;;;;11.83;60.62;100024.88;411585;23;18224;-70
2023/05/19 00:32:22;;;;;;;5.80;2.10;;;;;;;11.85;60.85;100025.69;415548;23;4619;-69
2023/05/19 00:32:34;;;;;;;6.25;2.10;;;;;;;11.86;60.95;100019.56;411623;23;18222;-71
2023/05/19 00:32:46;;;;;;;5.60;2.13;;;;;;;11.87;60.91;100025.63;413746;23;5247;-70
2023/05/19 00:32:58;;;;;;;6.03;2.10;;;;;;;11.86;61.30;100024.78;414411;23;4681;-71
2023/05/19 00:33:10;;;;;;;6.22;2.20;;;;;;;11.85;61.06;100023.09;412310;23;18097;-70
2023/05/19 00:33:22;;;;;;;6.85;2.00;;;;;;;11.86;61.39;100023.94;414442;23;5164;-70
2023/05/19 00:33:34;;;;;;;5.20;2.08;;;;;;;11.86;61.51;100023.94;411458;23;19527;-70
2023/05/19 00:33:46;;;;;;;3.65;1.92;;;;;;;11.86;61.67;100022.16;415215;23;4431;-70
2023/05/19 00:33:58;;;;;;;3.58;1.88;;;;;;;11.86;61.93;100026.53;411125;23;16238;-71
2023/05/19 00:34:10;;;;;;;5.00;1.90;;;;;;;11.84;61.16;100025.72;415086;23;5454;-71
2023/05/19 00:34:23;;;;;;;5.35;2.05;;;;;;;11.84;61.05;100016.16;414850;23;5131;-70
2023/05/19 00:34:35;;;;;;;4.95;2.10;;;;;;;11.83;61.21;100024.88;409914;23;18168;-70
2023/05/19 00:34:47;;;;;;;4.72;2.05;;;;;;;11.82;60.86;100019.72;415254;23;4457;-70
2023/05/19 00:34:59;;;;;;;7.10;2.17;;;;;;;11.80;60.81;100020.59;411957;23;16340;-70
2023/05/19 00:35:11;;;;;;;7.03;2.05;;;;;;;11.82;60.97;100025.78;414631;23;4984;-70
2023/05/19 00:35:23;;;;;;;6.07;1.98;;;;;;;11.81;60.86;100018.84;411078;23;18056;-70
2023/05/19 00:35:35;;;;;;;4.18;1.88;;;;;;;11.79;61.10;100023.25;415452;23;5343;-71
2023/05/19 00:35:47;;;;;;;3.67;1.95;;;;;;;11.78;60.95;100022.41;411185;23;4602;-71
2023/05/19 00:36:02;;;;;;;5.18;2.00;;;;;;;11.77;61.42;100025.03;411560;23;19318;-70
2023/05/19 00:37:07;;;;;;;2.63;1.90;;;;;;;11.77;61.44;100022.44;417242;23;18157;-81
2023/05/19 00:37:49;;;;;;;4.00;2.10;;;;;;;11.78;61.03;100016.34;406779;23;18204;-80
2023/05/19 00:38:11;;;;;;;5.03;1.90;;;;;;;11.78;62.16;100026.78;408727;23;19952;-81
2023/05/19 00:38:35;;;;;;;5.35;1.98;;;;;;;11.76;62.17;100018.16;407049;23;17068;-80
2023/05/19 00:38:47;;;;;;;3.78;2.00;;;;;;;11.78;61.84;100024.16;408104;23;17716;-81
2023/05/19 00:38:59;;;;;;;3.20;1.92;;;;;;;11.77;61.04;100025.03;407603;23;18336;-81
2023/05/19 00:39:11;;;;;;;3.83;2.17;;;;;;;11.77;61.04;100020.72;412152;23;4506;-81
2023/05/19 00:39:23;;;;;;;4.75;2.35;;;;;;;11.76;61.58;100020.75;407571;23;4494;-79
2023/05/19 00:39:35;;;;;;;4.53;2.20;;;;;;;11.77;61.40;100022.44;408381;23;18605;-80
2023/05/19 00:39:47;;;;;;;5.15;2.08;;;;;;;11.75;61.23;100019.03;409163;23;5019;-80
2023/05/19 00:39:59;;;;;;;5.43;1.98;;;;;;;11.75;61.41;100022.50;407015;23;4447;-80
2023/05/19 00:40:11;;;;;;;4.38;1.85;;;;;;;11.72;61.09;100013.94;410572;23;4698;-81
2023/05/19 00:40:24;;;;;;;3.97;1.90;;;;;;;11.69;60.62;100021.84;404564;23;11093;-80
2023/05/19 00:40:36;;;;;;;4.15;2.03;;;;;;;11.70;60.81;100015.75;408549;23;5103;-82
2023/05/19 00:40:48;;;;;;;6.43;2.15;;;;;;;11.67;60.63;100015.81;402686;23;16706;-80
2023/05/19 00:41:02;;;;;;;8.65;2.50;;;;;;;11.70;60.89;100020.94;407753;23;5236;-81
2023/05/19 00:41:14;;;;;;;8.82;2.30;;;;;;;11.68;61.19;100020.16;403650;23;18374;-80
2023/05/19 00:41:26;;;;;;;6.80;2.03;;;;;;;11.69;61.22;100024.44;408097;23;5307;-82
2023/05/19 00:41:38;;;;;;;4.40;2.00;;;;;;;11.71;61.15;100020.03;407933;23;4484;-80
2023/05/19 00:41:50;;;;;;;6.75;2.10;;;;;;;11.73;61.28;100020.84;405188;23;18550;-80
2023/05/19 00:42:02;;;;;;;7.22;2.10;;;;;;;11.72;61.00;100021.75;405314;23;5143;-80
2023/05/19 00:42:14;;;;;;;6.20;2.20;;;;;;;11.71;60.92;100020.03;402566;23;18848;-81
2023/05/19 00:42:26;;;;;;;4.38;2.13;;;;;;;11.69;61.12;100020.09;407291;23;4451;-81
2023/05/19 00:42:40;;;;;;;3.60;1.90;;;;;;;11.69;61.79;100019.22;401278;23;16531;-80
2023/05/19 00:42:52;;;;;;;3.38;2.00;;;;;;;11.68;61.38;100020.16;406276;23;4615;-80
2023/05/19 00:43:07;;;;;;;5.65;2.10;;;;;;;11.68;61.35;100017.53;403928;23;5032;-80
2023/05/19 00:43:19;;;;;;;6.72;2.20;;;;;;;11.71;61.19;100022.63;404294;23;18295;-80
2023/05/19 00:43:34;;;;;;;6.13;2.10;;;;;;;11.71;60.89;100017.44;405811;23;5311;-80
2023/05/19 00:43:46;;;;;;;6.25;2.00;;;;;;;11.68;60.98;100022.75;403901;23;17942;-80
2023/05/19 00:43:58;;;;;;;8.35;2.10;;;;;;;11.66;60.62;100027.16;408135;23;17706;-80
2023/05/19 00:44:10;;;;;;;7.10;2.10;;;;;;;11.66;60.36;100019.34;411948;23;5136;-81
2023/05/19 00:44:22;;;;;;;4.32;2.17;;;;;;;11.65;60.89;100026.31;411981;23;4461;-81
2023/05/19 00:44:39;;;;;;;4.07;2.00;;;;;;;11.66;60.92;100024.56;407642;23;19489;-81
2023/05/19 00:44:52;;;;;;;4.15;2.00;;;;;;;11.65;61.08;100025.44;410964;23;18042;-81
2023/05/19 00:45:04;;;;;;;5.28;2.20;;;;;;;11.63;61.26;100022.03;410759;23;19462;-79
2023/05/19 00:45:16;;;;;;;5.07;2.13;;;;;;;11.66;61.00;100021.94;413356;23;5175;-80
2023/05/19 00:45:28;;;;;;;5.30;2.10;;;;;;;11.63;60.96;100027.22;408744;23;16277;-80
2023/05/19 00:45:40;;;;;;;4.38;2.20;;;;;;;11.62;60.55;100025.53;412853;23;4466;-81
2023/05/19 00:45:52;;;;;;;4.25;2.25;;;;;;;11.62;60.86;100025.53;413955;23;4444;-81
2023/05/19 00:46:06;;;;;;;4.93;2.20;;;;;;;11.61;60.97;100024.69;411060;23;17915;-81
2023/05/19 00:46:18;;;;;;;4.68;2.08;;;;;;;11.60;60.46;100029.03;414938;23;5269;-80
2023/05/19 00:46:30;;;;;;;5.05;2.10;;;;;;;11.61;60.98;100019.50;411818;23;16845;-82
2023/05/19 00:46:42;;;;;;;4.28;2.00;;;;;;;11.60;60.88;100023.81;414777;23;4470;-80
2023/05/19 00:46:54;;;;;;;3.90;1.80;;;;;;;11.60;60.70;100025.59;411217;23;18381;-81
2023/05/19 00:47:07;;;;;;;4.82;2.15;;;;;;;11.58;61.10;100020.41;413287;23;5849;-80
2023/05/19 00:47:19;;;;;;;8.05;2.35;;;;;;;11.58;61.42;100025.63;409518;23;18656;-80
2023/05/19 00:47:32;;;;;;;7.32;2.30;;;;;;;11.61;61.31;100024.69;412719;23;4462;-80
2023/05/19 00:47:44;;;;;;;5.68;2.08;;;;;;;11.61;61.12;100024.69;409068;23;18313;-80
2023/05/19 00:47:59;;;;;;;4.70;2.10;;;;;;;11.60;61.16;100026.44;408683;23;16747;-81
2023/05/19 00:48:11;;;;;;;4.00;2.10;;;;;;;11.60;60.81;100018.63;413641;23;4401;-81
2023/05/19 00:48:24;;;;;;;4.25;2.25;;;;;;;11.59;61.30;100027.34;414057;23;4450;-81
2023/05/19 00:48:36;;;;;;;4.30;2.10;;;;;;;11.62;61.11;100020.34;407233;23;18091;-80
2023/05/19 00:48:50;;;;;;;4.63;2.10;;;;;;;11.64;61.38;100026.34;407760;23;11294;-79
2023/05/19 00:49:02;;;;;;;5.13;2.10;;;;;;;11.64;61.48;100019.38;413921;23;5022;-81
2023/05/19 00:49:14;;;;;;;4.13;1.98;;;;;;;11.63;61.13;100022.03;411398;23;19065;-81
2023/05/19 00:49:26;;;;;;;4.97;2.00;;;;;;;11.66;60.90;100019.34;415124;23;4467;-81
2023/05/19 00:49:39;;;;;;;4.93;1.90;;;;;;;11.64;61.15;100019.38;412482;23;5260;-80
2023/05/19 00:49:51;;;;;;;3.22;1.73;;;;;;;11.65;61.36;100022.84;414005;23;4432;-80
2023/05/19 00:50:03;;;;;;;3.17;1.88;;;;;;;11.64;61.29;100022.00;411156;23;4481;-80
2023/05/19 00:50:15;;;;;;;3.63;1.97;;;;;;;11.66;61.28;100021.94;408325;23;18288;-81
2023/05/19 00:50:27;;;;;;;4.10;2.10;;;;;;;11.66;61.13;100017.59;411433;23;4513;-81
2023/05/19 00:50:40;;;;;;;5.60;2.08;;;;;;;11.67;61.06;100023.63;407547;23;16309;-80
2023/05/19 00:50:55;;;;;;;5.78;1.90;;;;;;;11.68;60.96;100020.16;410934;23;5138;-81
2023/05/19 00:51:07;;;;;;;4.97;1.80;;;;;;;11.69;60.88;100021.84;406099;23;17630;-80
2023/05/19 00:51:19;;;;;;;4.07;1.90;;;;;;;11.69;61.01;100016.63;407283;23;18794;-81
2023/05/19 00:51:31;;;;;;;4.50;1.90;;;;;;;11.68;61.19;100014.94;410558;23;4553;-80
2023/05/19 00:51:43;;;;;;;4.73;2.00;;;;;;;11.70;61.25;100018.34;408242;23;5027;-79
2023/05/19 00:51:56;;;;;;;3.97;2.05;;;;;;;11.71;61.02;100022.63;412682;23;5056;-80
2023/05/19 00:52:09;;;;;;;4.22;2.10;;;;;;;11.72;60.94;100021.75;409354;23;18285;-80
2023/05/19 00:52:22;;;;;;;5.50;2.28;;;;;;;11.75;61.18;100021.63;413329;23;4438;-80
2023/05/19 00:52:34;;;;;;;7.25;2.28;;;;;;;11.75;61.01;100017.31;410050;23;16415;-80
2023/05/19 00:52:46;;;;;;;5.50;2.13;;;;;;;11.76;60.91;100012.94;413570;23;4450;-80
2023/05/19 00:52:58;;;;;;;5.03;2.10;;;;;;;11.75;60.73;100017.31;414090;23;4501;-80
2023/05/19 00:53:12;;;;;;;5.82;2.15;;;;;;;11.75;61.03;100014.69;410390;23;18607;-81
2023/05/19 00:53:24;;;;;;;8.73;2.30;;;;;;;11.76;61.57;100018.16;408215;23;18327;-80
2023/05/19 00:53:36;;;;;;;8.25;2.20;;;;;;;11.75;61.71;100016.44;412207;23;4475;-81
2023/05/19 00:53:50;;;;;;;5.63;2.00;;;;;;;11.73;61.53;100018.22;410584;23;4463;-81
2023/05/19 00:54:03;;;;;;;4.47;1.90;;;;;;;11.75;61.79;100016.44;408206;23;17840;-80
2023/05/19 00:54:15;;;;;;;3.88;1.90;;;;;;;11.74;61.52;100014.75;409348;23;19292;-80
2023/05/19 00:54:28;;;;;;;3.80;2.00;;;;;;;11.73;61.12;100020.84;414705;23;5416;-82
2023/05/19 00:54:40;;;;;;;3.30;1.90;;;;;;;11.74;61.47;100014.75;411372;23;18679;-81
2023/05/19 00:54:54;;;;;;;3.53;2.05;;;;;;;11.73;61.72;100020.84;412855;23;4880;-80
2023/05/19 00:55:07;;;;;;;4.05;2.15;;;;;;;11.72;62.29;100016.53;408225;23;19136;-81
2023/05/19 00:55:22;;;;;;;4.35;1.95;;;;;;;11.73;62.25;100021.72;408399;23;18588;-81
2023/05/19 00:55:36;;;;;;;4.53;2.00;;;;;;;11.75;62.08;100021.63;409831;23;16615;-80
2023/05/19 00:55:49;;;;;;;4.40;2.17;;;;;;;11.72;61.76;100016.53;410478;23;9395;-80
2023/05/19 00:56:01;;;;;;;3.30;2.08;;;;;;;11.73;61.62;100013.03;411959;23;4466;-81
2023/05/19 00:56:15;;;;;;;4.03;2.10;;;;;;;11.75;61.48;100016.44;406546;23;18695;-80
2023/05/19 00:56:27;;;;;;;4.68;2.30;;;;;;;11.73;61.56;100018.22;409610;23;5258;-81
2023/05/19 00:56:40;;;;;;;5.28;2.28;;;;;;;11.73;61.32;100013.03;405060;23;18157;-81
2023/05/19 00:56:54;;;;;;;4.03;2.08;;;;;;;11.73;61.22;100019.09;409569;23;4465;-80
2023/05/19 00:57:06;;;;;;;5.82;2.20;;;;;;;11.72;61.99;100013.94;405527;23;18602;-80
2023/05/19 00:57:19;;;;;;;4.85;2.00;;;;;;;11.71;61.70;100014.81;410883;23;5160;-80
2023/05/19 00:57:31;;;;;;;3.63;1.92;;;;;;;11.72;62.04;100016.53;407908;23;18359;-81
2023/05/19 00:57:44;;;;;;;3.97;2.08;;;;;;;11.71;62.24;100014.81;406627;23;4936;-80
2023/05/19 00:57:57;;;;;;;3.80;2.10;;;;;;;11.71;62.65;100014.81;410079;23;4476;-81
2023/05/19 00:58:10;;;;;;;3.67;2.10;;;;;;;11.70;62.24;100018.34;408944;23;4512;-81
2023/05/19 00:58:28;;;;;;;3.50;1.90;;;;;;;11.68;62.74;100010.56;413366;23;5180;-81
2023/05/19 00:58:43;;;;;;;4.47;2.10;;;;;;;11.68;62.23;100021.00;410230;23;19417;-81
2023/05/19 00:58:56;;;;;;;6.30;2.20;;;;;;;11.67;62.66;100018.44;409593;23;17851;-81
2023/05/19 00:59:08;;;;;;;5.53;2.00;;;;;;;11.68;62.78;100020.16;413549;23;4610;-80
2023/05/19 00:59:20;;;;;;;5.45;2.10;;;;;;;11.69;62.96;100014.91;409491;23;19550;-80
2023/05/19 00:59:32;;;;;;;6.97;2.30;;;;;;;11.70;62.90;100018.34;413457;23;4650;-80
2023/05/19 00:59:44;;;;;;;6.15;2.30;;;;;;;11.69;63.04;100017.50;410299;23;16077;-80
2023/05/19 00:59:56;;;;;;;4.45;2.15;;;;;;;11.67;62.98;100018.44;415569;23;5194;-80
2023/05/19 01:00:10;;;;;;;6.10;2.15;;;;;;;11.68;62.78;100014.94;415986;23;4434;-80
2023/05/19 01:00:22;;;;;;;9.05;2.15;;;;;;;11.67;62.78;100018.44;411208;23;18088;-80
2023/05/19 01:00:35;;;;;;;7.25;2.17;;;;;;;11.68;62.99;100014.94;410124;23;18705;-80
2023/05/19 01:00:48;;;;;;;4.80;2.08;;;;;;;11.66;62.99;100021.94;413167;23;4481;-81
2023/05/19 01:01:06;;;;;;;4.53;2.15;;;;;;;11.68;63.26;100015.78;407558;23;18205;-80
2023/05/19 01:01:20;;;;;;;3.72;2.13;;;;;;;11.69;62.45;100017.50;406199;23;17972;-81
2023/05/19 01:01:32;;;;;;;3.33;1.98;;;;;;;11.67;62.49;100018.44;407539;23;18052;-81
2023/05/19 01:01:47;;;;;;;2.78;1.90;;;;;;;11.68;62.53;100017.53;405995;23;18885;-81
2023/05/19 01:02:01;;;;;;;2.20;1.80;;;;;;;11.69;62.33;100022.72;405141;23;17994;-80